createdAt,value
2022-09-27T00:02:04.883Z,56.12
2022-09-27T00:08:29.324Z,56.13
2022-09-27T00:14:53.752Z,56.14
2022-09-27T00:21:21.066Z,56.22
2022-09-27T00:27:46.388Z,56.21
2022-09-27T00:34:10.723Z,56.29
2022-09-27T00:40:35.084Z,56.36
2022-09-27T00:47:02.169Z,56.44
2022-09-27T00:53:26.478Z,56.55
2022-09-27T00:59:55.011Z,56.60
2022-09-27T01:06:19.388Z,56.62
2022-09-27T01:12:57.854Z,56.64
2022-09-27T01:19:13.798Z,56.59
2022-09-27T01:25:44.095Z,56.51
2022-09-27T01:32:23.613Z,56.67
2022-09-27T01:39:06.331Z,56.80
2022-09-27T01:45:37.199Z,56.86
2022-09-27T01:52:05.286Z,56.92
2022-09-27T01:58:32.362Z,56.97
2022-09-27T02:04:56.664Z,57.08
2022-09-27T02:11:21.055Z,57.12
2022-09-27T02:17:48.069Z,57.15
2022-09-27T02:24:21.292Z,57.18
2022-09-27T02:30:48.857Z,57.20
2022-09-27T02:36:53.910Z,57.21
2022-09-27T02:43:18.188Z,57.11
2022-09-27T02:49:45.228Z,57.18
2022-09-27T02:56:30.523Z,57.23
2022-09-27T03:03:08.644Z,57.14
2022-09-27T03:09:35.711Z,57.10
2022-09-27T03:16:01.901Z,57.12
2022-09-27T03:22:25.687Z,57.26
2022-09-27T03:28:54.477Z,57.26
2022-09-27T03:35:20.139Z,57.33
2022-09-27T03:41:44.528Z,57.37
2022-09-27T03:48:08.762Z,57.37
2022-09-27T03:54:36.165Z,57.40
2022-09-27T04:01:06.652Z,57.40
2022-09-27T04:07:31.193Z,57.45
2022-09-27T04:14:05.193Z,57.41
2022-09-27T04:20:36.526Z,57.47
2022-09-27T04:27:07.195Z,57.47
2022-09-27T04:33:31.362Z,57.18
2022-09-27T04:40:04.699Z,56.99
2022-09-27T04:46:29.159Z,56.77
2022-09-27T04:52:53.388Z,56.40
2022-09-27T04:59:18.001Z,55.99
2022-09-27T05:05:44.497Z,55.60
2022-09-27T05:12:08.727Z,55.30
2022-09-27T05:18:38.779Z,54.93
2022-09-27T05:25:18.282Z,54.54
2022-09-27T05:31:42.660Z,54.18
2022-09-27T05:38:06.986Z,53.78
2022-09-27T05:44:31.244Z,53.73
2022-09-27T05:50:55.587Z,53.35
2022-09-27T05:57:19.913Z,53.10
2022-09-27T06:03:44.206Z,52.85
2022-09-27T06:10:23.673Z,52.68
2022-09-27T06:16:47.921Z,52.51
2022-09-27T06:23:12.291Z,52.51
2022-09-27T06:29:36.592Z,52.38
2022-09-27T06:36:05.961Z,52.43
2022-09-27T06:42:30.402Z,52.48
2022-09-27T06:49:12.683Z,52.57
2022-09-27T06:55:38.093Z,52.58
2022-09-27T07:02:31.651Z,52.72
2022-09-27T07:09:05.264Z,52.84
2022-09-27T07:15:29.470Z,52.89
2022-09-27T07:21:53.747Z,52.94
2022-09-27T07:28:21.843Z,53.06
2022-09-27T07:34:46.548Z,53.18
2022-09-27T07:41:10.854Z,53.27
2022-09-27T07:47:35.081Z,53.37
2022-09-27T07:54:08.951Z,53.42
2022-09-27T08:00:36.050Z,53.48
2022-09-27T08:07:00.006Z,53.52
2022-09-27T08:13:24.338Z,53.57
2022-09-27T08:19:48.651Z,53.59
2022-09-27T08:26:12.937Z,53.67
2022-09-27T08:32:50.086Z,53.66
2022-09-27T08:39:14.317Z,53.64
2022-09-27T08:45:41.799Z,53.77
2022-09-27T08:52:06.051Z,53.69
2022-09-27T08:58:30.360Z,53.60
2022-09-27T09:04:54.712Z,53.60
2022-09-27T09:11:28.334Z,53.61
2022-09-27T09:18:07.489Z,53.63
2022-09-27T09:24:39.299Z,53.68
2022-09-27T09:31:03.624Z,53.72
2022-09-27T09:37:39.088Z,53.79
2022-09-27T09:44:12.273Z,53.84
2022-09-27T09:50:45.918Z,53.89
2022-09-27T09:57:24.880Z,53.92
2022-09-27T10:03:49.141Z,53.96
2022-09-27T10:10:13.400Z,54.05
2022-09-27T10:17:08.246Z,54.13
2022-09-27T10:23:59.771Z,54.23
2022-09-27T10:30:30.151Z,54.32
2022-09-27T10:36:54.400Z,54.35
2022-09-27T10:43:21.389Z,54.32
2022-09-27T10:49:48.479Z,54.26
2022-09-27T10:56:15.543Z,54.06
2022-09-27T11:02:39.947Z,53.83
2022-09-27T11:09:04.871Z,53.57
2022-09-27T11:15:44.513Z,53.34
2022-09-27T11:22:36.231Z,53.12
2022-09-27T11:29:00.503Z,52.96
2022-09-27T11:35:30.576Z,52.86
2022-09-27T11:41:58.018Z,52.80
2022-09-27T11:48:31.297Z,52.70
2022-09-27T11:55:29.642Z,52.61
2022-09-27T12:02:00.198Z,52.60
2022-09-27T12:08:30.395Z,52.40
2022-09-27T12:15:06.678Z,52.35
2022-09-27T12:21:43.171Z,52.33
2022-09-27T12:28:31.658Z,52.39
2022-09-27T12:34:57.218Z,52.37
2022-09-27T12:41:22.787Z,51.95
2022-09-27T12:47:48.325Z,51.49
2022-09-27T12:54:12.559Z,50.98
2022-09-27T13:00:55.043Z,50.27
2022-09-27T13:07:25.378Z,50.09
2022-09-27T13:13:49.753Z,50.21
2022-09-27T13:20:23.127Z,50.37
2022-09-27T13:27:02.582Z,50.61
2022-09-27T13:33:26.931Z,50.70
2022-09-27T13:39:54.259Z,50.74
2022-09-27T13:46:27.250Z,50.68
2022-09-27T13:53:06.992Z,50.81
2022-09-27T13:59:33.819Z,50.99
2022-09-27T14:05:58.143Z,51.11
2022-09-27T14:12:31.470Z,51.27
2022-09-27T14:18:58.841Z,51.33
2022-09-27T14:25:23.168Z,51.41
2022-09-27T14:31:47.452Z,51.57
2022-09-27T14:38:36.629Z,51.71
2022-09-27T14:44:59.100Z,51.87
2022-09-27T14:51:23.549Z,52.03
2022-09-27T14:57:47.829Z,52.20
2022-09-27T15:04:12.304Z,52.37
2022-09-27T15:10:36.710Z,52.52
2022-09-27T15:16:55.462Z,52.67
2022-09-27T15:23:22.949Z,52.82
2022-09-27T15:29:48.424Z,52.97
2022-09-27T15:36:12.691Z,53.13
2022-09-27T15:42:50.739Z,53.30
2022-09-27T15:49:16.218Z,53.41
2022-09-27T15:55:40.684Z,53.65
2022-09-27T16:02:08.037Z,54.11
2022-09-27T16:08:33.207Z,54.59
2022-09-27T16:14:58.525Z,54.87
2022-09-27T16:21:22.934Z,55.12
2022-09-27T16:27:47.246Z,55.34
2022-09-27T16:34:11.618Z,55.55
2022-09-27T16:40:36.162Z,55.70
2022-09-27T16:47:09.610Z,55.82
2022-09-27T16:53:33.914Z,55.98
2022-09-27T16:59:58.115Z,56.09
2022-09-27T17:06:22.523Z,56.12
2022-09-27T17:12:46.560Z,55.94
2022-09-27T17:19:06.407Z,55.80
2022-09-27T17:25:30.662Z,55.69
2022-09-27T17:31:57.994Z,55.46
2022-09-27T17:38:22.481Z,55.15
2022-09-27T17:44:46.748Z,54.81
2022-09-27T17:51:11.153Z,54.50
2022-09-27T17:57:38.349Z,54.20
2022-09-27T18:04:02.679Z,53.94
2022-09-27T18:10:26.945Z,53.66
2022-09-27T18:16:56.937Z,53.68
2022-09-27T18:23:21.328Z,53.65
2022-09-27T18:29:45.527Z,53.59
2022-09-27T18:36:09.847Z,53.55
2022-09-27T18:42:34.152Z,53.63
2022-09-27T18:48:58.455Z,53.71
2022-09-27T18:55:25.253Z,53.79
2022-09-27T19:01:49.881Z,53.89
2022-09-27T19:08:14.166Z,53.96
2022-09-27T19:14:38.483Z,54.03
2022-09-27T19:21:05.093Z,54.11
2022-09-27T19:27:31.499Z,54.17
2022-09-27T19:33:59.881Z,54.22
2022-09-27T19:40:25.036Z,54.28
2022-09-27T19:46:52.248Z,54.28
2022-09-27T19:53:16.104Z,54.29
2022-09-27T19:59:40.445Z,54.30
2022-09-27T20:06:04.741Z,54.33
2022-09-27T20:12:29.017Z,54.38
2022-09-27T20:18:53.271Z,54.40
2022-09-27T20:25:17.663Z,54.43
2022-09-27T20:32:09.110Z,54.51
2022-09-27T20:38:28.909Z,54.61
2022-09-27T20:44:54.491Z,54.70
2022-09-27T20:51:18.938Z,54.71
2022-09-27T20:57:56.817Z,54.63
2022-09-27T21:04:21.849Z,54.64
2022-09-27T21:10:49.216Z,54.68
2022-09-27T21:17:15.259Z,54.73
2022-09-27T21:23:44.157Z,54.76
2022-09-27T21:30:09.135Z,54.80
2022-09-27T21:36:33.645Z,54.85
2022-09-27T21:42:58.066Z,54.91
2022-09-27T21:49:22.369Z,54.97
2022-09-27T21:55:46.753Z,55.01
2022-09-27T22:02:11.220Z,55.03
2022-09-27T22:08:35.575Z,55.04
2022-09-27T22:14:59.922Z,55.08
2022-09-27T22:21:24.218Z,55.13
2022-09-27T22:27:48.557Z,55.19
2022-09-27T22:34:12.955Z,55.21
2022-09-27T22:40:31.007Z,55.25
2022-09-27T22:46:55.497Z,55.30
2022-09-27T22:53:19.833Z,55.37
2022-09-27T22:59:44.045Z,55.46
2022-09-27T23:06:01.574Z,55.53
2022-09-27T23:12:25.908Z,55.59
2022-09-27T23:18:53.016Z,55.66
2022-09-27T23:25:17.283Z,55.69
2022-09-27T23:31:47.339Z,55.73
2022-09-27T23:38:11.740Z,55.77
2022-09-27T23:44:36.070Z,55.73
2022-09-27T23:51:00.380Z,55.73
2022-09-27T23:57:14.428Z,55.78
